createdAt,value
2019-01-06T09:15:15.331Z,93.70
2019-01-06T09:20:41.985Z,93.80
2019-01-06T09:26:08.774Z,93.50
2019-01-06T09:31:29.166Z,93.20
2019-01-06T09:36:44.967Z,92.30
2019-01-06T09:42:12.177Z,91.80
2019-01-06T09:47:26.799Z,91.90
2019-01-06T09:52:37.598Z,91.50
2019-01-06T09:57:45.926Z,91.50
2019-01-06T10:03:12.735Z,91.10
2019-01-06T10:08:27.394Z,90.70
2019-01-06T10:13:57.028Z,90.70
2019-01-06T10:19:14.582Z,90.60
2019-01-06T10:24:35.622Z,90.20
2019-01-06T10:29:54.730Z,89.10
2019-01-06T10:35:12.191Z,88.30
2019-01-06T10:40:31.991Z,86.60
2019-01-06T10:45:45.705Z,83.90
2019-01-06T10:51:03.342Z,84.40
2019-01-06T10:56:29.839Z,84.20
2019-01-06T11:02:02.704Z,81.90
2019-01-06T11:07:29.440Z,80.20
2019-01-06T11:12:46.847Z,80.60
2019-01-06T11:18:00.406Z,77.80
2019-01-06T11:23:15.199Z,77.00
2019-01-06T11:28:30.088Z,76.20
2019-01-06T11:33:44.856Z,74.40
2019-01-06T11:38:58.395Z,72.30
2019-01-06T11:44:11.916Z,67.80
2019-01-06T11:49:44.939Z,64.40
2019-01-06T11:55:14.940Z,62.00
2019-01-06T12:00:39.902Z,58.40
2019-01-06T12:06:03.767Z,58.00
2019-01-06T12:11:30.448Z,57.90
2019-01-06T12:17:00.207Z,58.20
2019-01-06T12:22:18.230Z,58.60
2019-01-06T12:27:33.016Z,57.70
2019-01-06T12:32:47.663Z,57.00
2019-01-06T12:38:01.238Z,57.10
2019-01-06T12:43:31.256Z,55.20
2019-01-06T12:48:51.860Z,34.50
2019-01-06T12:54:05.092Z,32.60
2019-01-06T12:59:18.522Z,34.90
2019-01-06T13:04:31.983Z,36.10
2019-01-06T13:09:47.239Z,35.60
2019-01-06T13:15:07.819Z,33.80
2019-01-06T13:20:25.386Z,32.60
2019-01-06T13:25:39.187Z,30.60
2019-01-06T13:30:52.833Z,30.90
2019-01-06T13:36:06.594Z,32.10
2019-01-06T13:41:27.629Z,32.60
2019-01-06T13:46:42.703Z,32.10
2019-01-06T13:52:12.549Z,35.70
2019-01-06T13:57:31.462Z,36.60
2019-01-06T14:03:05.576Z,33.50
2019-01-06T14:08:23.222Z,35.70
2019-01-06T14:13:36.603Z,38.90
2019-01-06T14:19:03.373Z,40.40
2019-01-06T14:24:21.343Z,41.20
2019-01-06T14:29:44.072Z,41.90
2019-01-06T14:34:59.095Z,42.20
2019-01-06T14:40:17.923Z,43.00
2019-01-06T14:45:41.559Z,44.00
2019-01-06T14:50:54.885Z,44.30
2019-01-06T14:55:58.334Z,45.40
2019-01-06T15:01:17.285Z,45.00
2019-01-06T15:06:35.038Z,45.20
2019-01-06T15:11:48.223Z,45.20
2019-01-06T15:17:08.198Z,45.90
2019-01-06T15:22:21.838Z,46.20
2019-01-06T15:27:35.401Z,47.00
2019-01-06T15:32:55.511Z,47.60
2019-01-06T15:38:16.214Z,47.40
2019-01-06T15:43:29.686Z,47.90
2019-01-06T15:48:50.330Z,48.50
2019-01-06T15:54:10.966Z,48.10
2019-01-06T15:59:34.790Z,48.30
2019-01-06T16:04:52.406Z,48.60
2019-01-06T16:10:18.191Z,48.90
2019-01-06T16:15:31.536Z,49.30
2019-01-06T16:20:45.280Z,49.60
2019-01-06T16:26:15.362Z,49.10
2019-01-06T16:31:28.615Z,49.80
2019-01-06T16:36:42.037Z,49.60
2019-01-06T16:41:56.611Z,50.30
2019-01-06T16:47:11.502Z,51.30
2019-01-06T16:52:39.047Z,51.20
2019-01-06T16:57:52.656Z,51.30
2019-01-06T17:03:06.614Z,51.70
2019-01-06T17:08:20.273Z,51.80
2019-01-06T17:13:33.845Z,51.80
2019-01-06T17:18:47.080Z,52.60
2019-01-06T17:24:04.475Z,52.40
2019-01-06T17:29:38.006Z,51.60
2019-01-06T17:35:01.879Z,51.30
2019-01-06T17:40:30.183Z,51.90
2019-01-06T17:45:43.162Z,53.20
2019-01-06T17:51:09.879Z,52.80
2019-01-06T17:56:24.449Z,52.80
2019-01-06T18:01:51.139Z,54.00
2019-01-06T18:07:04.734Z,53.60
2019-01-06T18:12:17.958Z,53.90
2019-01-06T18:17:32.586Z,54.30
2019-01-06T18:22:56.405Z,53.90
2019-01-06T18:28:10.974Z,53.70
2019-01-06T18:33:35.286Z,53.90
2019-01-06T18:38:48.499Z,54.80
2019-01-06T18:44:21.208Z,55.10
2019-01-06T18:49:48.060Z,55.30
2019-01-06T18:55:09.540Z,55.70
2019-01-06T19:00:28.121Z,56.70
2019-01-06T19:05:42.718Z,57.90
2019-01-06T19:10:56.099Z,59.30
2019-01-06T19:16:10.350Z,60.40
2019-01-06T19:21:28.511Z,61.80
2019-01-06T19:26:57.853Z,63.50
2019-01-06T19:32:16.248Z,65.50
2019-01-06T19:37:30.832Z,67.00
2019-01-06T19:42:48.395Z,69.10
2019-01-06T19:48:18.111Z,71.10
2019-01-06T19:53:35.493Z,73.70
2019-01-06T19:59:02.207Z,74.60
2019-01-06T20:04:15.494Z,75.20
2019-01-06T20:09:32.006Z,75.70
2019-01-06T20:14:45.698Z,75.40
2019-01-06T20:20:01.342Z,76.10
2019-01-06T20:25:21.748Z,77.40
2019-01-06T20:30:35.151Z,78.10
2019-01-06T20:35:56.041Z,78.50
2019-01-06T20:41:12.192Z,79.20
2019-01-06T20:46:26.001Z,79.90
2019-01-06T20:51:35.615Z,80.80
2019-01-06T20:56:48.782Z,81.10
2019-01-06T21:02:15.657Z,82.90
2019-01-06T21:07:28.908Z,83.60
2019-01-06T21:12:56.570Z,84.00
2019-01-06T21:18:10.215Z,84.90
2019-01-06T21:23:23.399Z,86.10
2019-01-06T21:28:34.134Z,87.50
2019-01-06T21:33:51.647Z,88.60
2019-01-06T21:39:07.238Z,89.20
2019-01-06T21:44:20.522Z,89.30
2019-01-06T21:49:41.466Z,89.80
2019-01-06T21:55:11.401Z,90.20
2019-01-06T22:00:41.878Z,90.30
2019-01-06T22:05:55.286Z,90.40
2019-01-06T22:11:08.773Z,90.60
2019-01-06T22:16:22.297Z,90.90
2019-01-06T22:21:39.861Z,91.10
2019-01-06T22:26:53.109Z,91.50
2019-01-06T22:32:10.678Z,92.20
2019-01-06T22:37:28.498Z,92.50
2019-01-06T22:42:58.402Z,92.70
2019-01-06T22:48:21.815Z,93.30
2019-01-06T22:53:39.079Z,93.00
2019-01-06T22:58:52.240Z,93.00
2019-01-06T23:04:12.851Z,93.40
2019-01-06T23:09:31.814Z,94.30
2019-01-06T23:14:41.826Z,93.90
2019-01-06T23:20:08.413Z,93.60
2019-01-06T23:25:21.774Z,94.20
2019-01-06T23:30:48.029Z,94.50
2019-01-06T23:36:05.378Z,94.60
2019-01-06T23:41:38.129Z,95.10
2019-01-06T23:46:55.625Z,95.30
2019-01-06T23:52:16.262Z,95.70
2019-01-06T23:57:36.733Z,96.00
